< < Back
Terminal Aerodrome Forecast


Current Version              Previous Versions:   1  2  3  4  5  6  7  8  9  

Terminal Aerodrome Forecast

887
FTUS44 KBMX 060700 AAA
TAFMGM
TAF AMD
KMGM 060707Z 0607/0706 35010KT P6SM SKC=



Latest METAR

930
SAUS80 KWBC 061700 RRA
MTRMGM
METAR KMGM 061653Z VRB03KT 10SM FEW022 BKN028 04/M04 A3049 RMK AO2
SLP327 T00391039


USA.gov is the U.S. government's official web portal to all federal, state and local government web resources and services.